sensor_id;sensor_type;location;lat;lon;timestamp;P1;durP1;ratioP1;P2;durP2;ratioP2
12433;SDS011;6281;49.038;8.372;2023-07-30T00:00:48;0.77;;;0.73;;
12433;SDS011;6281;49.038;8.372;2023-07-30T00:03:15;0.60;;;0.50;;
12433;SDS011;6281;49.038;8.372;2023-07-30T00:05:42;0.80;;;0.40;;
12433;SDS011;6281;49.038;8.372;2023-07-30T00:08:09;0.73;;;0.60;;
12433;SDS011;6281;49.038;8.372;2023-07-30T00:10:35;0.83;;;0.70;;
12433;SDS011;6281;49.038;8.372;2023-07-30T00:13:03;1.10;;;0.60;;
12433;SDS011;6281;49.038;8.372;2023-07-30T00:15:30;1.10;;;0.80;;
12433;SDS011;6281;49.038;8.372;2023-07-30T00:17:58;1.20;;;0.60;;
12433;SDS011;6281;49.038;8.372;2023-07-30T00:20:25;0.70;;;0.70;;
12433;SDS011;6281;49.038;8.372;2023-07-30T00:22:51;1.43;;;0.90;;
12433;SDS011;6281;49.038;8.372;2023-07-30T00:25:18;1.00;;;0.90;;
12433;SDS011;6281;49.038;8.372;2023-07-30T00:27:45;1.10;;;0.70;;
12433;SDS011;6281;49.038;8.372;2023-07-30T00:30:13;1.10;;;0.83;;
12433;SDS011;6281;49.038;8.372;2023-07-30T00:32:40;1.10;;;0.70;;
12433;SDS011;6281;49.038;8.372;2023-07-30T00:35:08;4.23;;;1.13;;
12433;SDS011;6281;49.038;8.372;2023-07-30T00:37:35;0.80;;;0.77;;
12433;SDS011;6281;49.038;8.372;2023-07-30T00:40:03;1.20;;;1.10;;
12433;SDS011;6281;49.038;8.372;2023-07-30T00:42:30;2.07;;;1.10;;
12433;SDS011;6281;49.038;8.372;2023-07-30T00:44:57;1.33;;;0.90;;
12433;SDS011;6281;49.038;8.372;2023-07-30T00:47:26;2.00;;;1.67;;
12433;SDS011;6281;49.038;8.372;2023-07-30T00:49:53;2.53;;;1.20;;
12433;SDS011;6281;49.038;8.372;2023-07-30T00:52:21;1.00;;;0.90;;
12433;SDS011;6281;49.038;8.372;2023-07-30T00:54:49;1.40;;;1.30;;
12433;SDS011;6281;49.038;8.372;2023-07-30T00:57:17;3.17;;;1.70;;
12433;SDS011;6281;49.038;8.372;2023-07-30T00:59:45;2.27;;;1.60;;
12433;SDS011;6281;49.038;8.372;2023-07-30T01:02:12;1.50;;;1.30;;
12433;SDS011;6281;49.038;8.372;2023-07-30T01:04:41;2.83;;;1.40;;
12433;SDS011;6281;49.038;8.372;2023-07-30T01:07:08;2.63;;;1.50;;
12433;SDS011;6281;49.038;8.372;2023-07-30T01:09:35;2.03;;;1.80;;
12433;SDS011;6281;49.038;8.372;2023-07-30T01:12:05;2.77;;;1.50;;
12433;SDS011;6281;49.038;8.372;2023-07-30T01:14:34;1.97;;;1.73;;
12433;SDS011;6281;49.038;8.372;2023-07-30T01:17:03;2.00;;;1.67;;
12433;SDS011;6281;49.038;8.372;2023-07-30T01:19:30;2.40;;;1.70;;
12433;SDS011;6281;49.038;8.372;2023-07-30T01:21:59;2.30;;;1.73;;
12433;SDS011;6281;49.038;8.372;2023-07-30T01:24:26;1.70;;;1.53;;
12433;SDS011;6281;49.038;8.372;2023-07-30T01:26:54;2.17;;;1.47;;
12433;SDS011;6281;49.038;8.372;2023-07-30T01:29:27;2.07;;;1.70;;
12433;SDS011;6281;49.038;8.372;2023-07-30T01:32:02;2.60;;;1.43;;
12433;SDS011;6281;49.038;8.372;2023-07-30T01:34:34;1.73;;;1.47;;
12433;SDS011;6281;49.038;8.372;2023-07-30T01:37:07;1.77;;;1.50;;
12433;SDS011;6281;49.038;8.372;2023-07-30T01:39:36;2.63;;;1.77;;
12433;SDS011;6281;49.038;8.372;2023-07-30T01:42:04;2.10;;;1.67;;
12433;SDS011;6281;49.038;8.372;2023-07-30T01:44:31;3.50;;;1.90;;
12433;SDS011;6281;49.038;8.372;2023-07-30T01:46:58;1.90;;;1.53;;
12433;SDS011;6281;49.038;8.372;2023-07-30T01:49:25;1.73;;;1.60;;
12433;SDS011;6281;49.038;8.372;2023-07-30T01:51:52;2.10;;;1.90;;
12433;SDS011;6281;49.038;8.372;2023-07-30T01:54:22;2.57;;;1.70;;
12433;SDS011;6281;49.038;8.372;2023-07-30T01:56:49;3.67;;;1.77;;
12433;SDS011;6281;49.038;8.372;2023-07-30T01:59:16;2.30;;;1.77;;
12433;SDS011;6281;49.038;8.372;2023-07-30T02:01:43;2.30;;;1.70;;
12433;SDS011;6281;49.038;8.372;2023-07-30T02:04:10;2.77;;;1.90;;
12433;SDS011;6281;49.038;8.372;2023-07-30T02:06:37;3.93;;;2.07;;
12433;SDS011;6281;49.038;8.372;2023-07-30T02:09:04;2.30;;;1.90;;
12433;SDS011;6281;49.038;8.372;2023-07-30T02:11:35;4.47;;;2.00;;
12433;SDS011;6281;49.038;8.372;2023-07-30T02:14:04;3.87;;;2.20;;
12433;SDS011;6281;49.038;8.372;2023-07-30T02:16:31;2.77;;;1.80;;
12433;SDS011;6281;49.038;8.372;2023-07-30T02:18:58;2.23;;;2.00;;
12433;SDS011;6281;49.038;8.372;2023-07-30T02:21:24;2.50;;;1.80;;
12433;SDS011;6281;49.038;8.372;2023-07-30T02:23:51;3.13;;;2.37;;
12433;SDS011;6281;49.038;8.372;2023-07-30T02:26:18;2.60;;;2.20;;
12433;SDS011;6281;49.038;8.372;2023-07-30T02:28:47;3.63;;;2.40;;
12433;SDS011;6281;49.038;8.372;2023-07-30T02:31:14;2.00;;;1.80;;
12433;SDS011;6281;49.038;8.372;2023-07-30T02:33:41;2.70;;;2.10;;
12433;SDS011;6281;49.038;8.372;2023-07-30T02:36:07;3.50;;;1.90;;
12433;SDS011;6281;49.038;8.372;2023-07-30T02:38:34;3.17;;;2.10;;
12433;SDS011;6281;49.038;8.372;2023-07-30T02:41:01;2.70;;;2.20;;
12433;SDS011;6281;49.038;8.372;2023-07-30T02:43:28;3.43;;;1.70;;
12433;SDS011;6281;49.038;8.372;2023-07-30T02:45:57;2.37;;;2.00;;
12433;SDS011;6281;49.038;8.372;2023-07-30T02:48:24;3.17;;;1.70;;
12433;SDS011;6281;49.038;8.372;2023-07-30T02:50:51;3.13;;;2.20;;
12433;SDS011;6281;49.038;8.372;2023-07-30T02:53:17;2.57;;;1.70;;
12433;SDS011;6281;49.038;8.372;2023-07-30T02:55:44;2.40;;;1.80;;
12433;SDS011;6281;49.038;8.372;2023-07-30T02:58:11;3.43;;;2.00;;
12433;SDS011;6281;49.038;8.372;2023-07-30T03:00:38;1.87;;;1.73;;
12433;SDS011;6281;49.038;8.372;2023-07-30T03:03:06;2.50;;;2.00;;
12433;SDS011;6281;49.038;8.372;2023-07-30T03:05:33;3.37;;;1.90;;
12433;SDS011;6281;49.038;8.372;2023-07-30T03:08:00;2.47;;;2.03;;
12433;SDS011;6281;49.038;8.372;2023-07-30T03:10:27;2.23;;;2.03;;
12433;SDS011;6281;49.038;8.372;2023-07-30T03:12:54;3.57;;;2.20;;
12433;SDS011;6281;49.038;8.372;2023-07-30T03:15:21;3.13;;;2.10;;
12433;SDS011;6281;49.038;8.372;2023-07-30T03:17:48;3.13;;;1.83;;
12433;SDS011;6281;49.038;8.372;2023-07-30T03:20:16;2.90;;;2.10;;
12433;SDS011;6281;49.038;8.372;2023-07-30T03:22:43;2.70;;;2.27;;
12433;SDS011;6281;49.038;8.372;2023-07-30T03:25:10;2.60;;;2.40;;
12433;SDS011;6281;49.038;8.372;2023-07-30T03:27:37;3.10;;;2.17;;
12433;SDS011;6281;49.038;8.372;2023-07-30T03:30:04;5.90;;;2.07;;
12433;SDS011;6281;49.038;8.372;2023-07-30T03:32:32;2.80;;;2.37;;
12433;SDS011;6281;49.038;8.372;2023-07-30T03:34:59;3.20;;;2.50;;
12433;SDS011;6281;49.038;8.372;2023-07-30T03:37:27;2.63;;;2.37;;
12433;SDS011;6281;49.038;8.372;2023-07-30T03:39:54;5.27;;;3.00;;
12433;SDS011;6281;49.038;8.372;2023-07-30T03:42:21;2.03;;;1.80;;
12433;SDS011;6281;49.038;8.372;2023-07-30T03:44:48;3.03;;;2.50;;
12433;SDS011;6281;49.038;8.372;2023-07-30T03:47:15;3.03;;;1.80;;
12433;SDS011;6281;49.038;8.372;2023-07-30T03:49:41;2.00;;;1.80;;
12433;SDS011;6281;49.038;8.372;2023-07-30T03:52:08;2.80;;;1.90;;
12433;SDS011;6281;49.038;8.372;2023-07-30T03:54:37;2.77;;;1.70;;
12433;SDS011;6281;49.038;8.372;2023-07-30T03:57:04;2.30;;;1.80;;
12433;SDS011;6281;49.038;8.372;2023-07-30T03:59:31;3.60;;;2.13;;
12433;SDS011;6281;49.038;8.372;2023-07-30T04:01:58;1.97;;;1.80;;
12433;SDS011;6281;49.038;8.372;2023-07-30T04:04:25;3.77;;;1.80;;
12433;SDS011;6281;49.038;8.372;2023-07-30T04:06:52;2.33;;;1.83;;
12433;SDS011;6281;49.038;8.372;2023-07-30T04:09:22;2.93;;;1.63;;
12433;SDS011;6281;49.038;8.372;2023-07-30T04:11:50;2.13;;;1.90;;
12433;SDS011;6281;49.038;8.372;2023-07-30T04:14:17;2.33;;;1.93;;
12433;SDS011;6281;49.038;8.372;2023-07-30T04:16:44;3.10;;;2.10;;
12433;SDS011;6281;49.038;8.372;2023-07-30T04:19:12;5.53;;;2.13;;
12433;SDS011;6281;49.038;8.372;2023-07-30T04:21:39;2.20;;;2.00;;
12433;SDS011;6281;49.038;8.372;2023-07-30T04:24:05;2.47;;;1.93;;
12433;SDS011;6281;49.038;8.372;2023-07-30T04:26:32;2.20;;;1.83;;
12433;SDS011;6281;49.038;8.372;2023-07-30T04:29:01;1.70;;;1.60;;
12433;SDS011;6281;49.038;8.372;2023-07-30T04:31:27;2.57;;;1.97;;
12433;SDS011;6281;49.038;8.372;2023-07-30T04:33:54;2.30;;;1.80;;
12433;SDS011;6281;49.038;8.372;2023-07-30T04:36:21;3.00;;;1.63;;
12433;SDS011;6281;49.038;8.372;2023-07-30T04:38:48;2.13;;;1.83;;
12433;SDS011;6281;49.038;8.372;2023-07-30T04:41:15;2.00;;;1.40;;
12433;SDS011;6281;49.038;8.372;2023-07-30T04:43:42;1.40;;;1.30;;
12433;SDS011;6281;49.038;8.372;2023-07-30T04:46:10;2.17;;;1.60;;
12433;SDS011;6281;49.038;8.372;2023-07-30T04:48:37;3.43;;;1.67;;
12433;SDS011;6281;49.038;8.372;2023-07-30T04:51:04;1.60;;;1.50;;
12433;SDS011;6281;49.038;8.372;2023-07-30T04:53:31;1.60;;;1.50;;
12433;SDS011;6281;49.038;8.372;2023-07-30T04:55:58;2.07;;;1.53;;
12433;SDS011;6281;49.038;8.372;2023-07-30T04:58:25;1.53;;;1.33;;
12433;SDS011;6281;49.038;8.372;2023-07-30T05:00:52;3.20;;;1.63;;
12433;SDS011;6281;49.038;8.372;2023-07-30T05:03:20;4.67;;;1.60;;
12433;SDS011;6281;49.038;8.372;2023-07-30T05:05:47;2.27;;;1.77;;
12433;SDS011;6281;49.038;8.372;2023-07-30T05:08:14;3.03;;;1.77;;
12433;SDS011;6281;49.038;8.372;2023-07-30T05:10:41;1.77;;;1.63;;
12433;SDS011;6281;49.038;8.372;2023-07-30T05:13:08;2.73;;;1.80;;
12433;SDS011;6281;49.038;8.372;2023-07-30T05:15:35;2.07;;;1.70;;
12433;SDS011;6281;49.038;8.372;2023-07-30T05:18:02;2.20;;;1.60;;
12433;SDS011;6281;49.038;8.372;2023-07-30T05:20:30;2.90;;;1.83;;
12433;SDS011;6281;49.038;8.372;2023-07-30T05:22:57;2.30;;;1.80;;
12433;SDS011;6281;49.038;8.372;2023-07-30T05:25:24;2.87;;;1.77;;
12433;SDS011;6281;49.038;8.372;2023-07-30T05:27:51;2.00;;;1.70;;
12433;SDS011;6281;49.038;8.372;2023-07-30T05:30:17;2.43;;;1.50;;
12433;SDS011;6281;49.038;8.372;2023-07-30T05:32:44;4.20;;;1.77;;
12433;SDS011;6281;49.038;8.372;2023-07-30T05:35:12;3.90;;;1.67;;
12433;SDS011;6281;49.038;8.372;2023-07-30T05:37:41;2.30;;;1.57;;
12433;SDS011;6281;49.038;8.372;2023-07-30T05:40:08;1.67;;;1.50;;
12433;SDS011;6281;49.038;8.372;2023-07-30T05:42:35;3.13;;;2.07;;
12433;SDS011;6281;49.038;8.372;2023-07-30T05:45:02;2.63;;;1.80;;
12433;SDS011;6281;49.038;8.372;2023-07-30T05:47:29;3.40;;;2.03;;
12433;SDS011;6281;49.038;8.372;2023-07-30T05:49:56;2.40;;;2.03;;
12433;SDS011;6281;49.038;8.372;2023-07-30T05:52:23;2.67;;;1.97;;
12433;SDS011;6281;49.038;8.372;2023-07-30T05:54:51;1.90;;;1.70;;
12433;SDS011;6281;49.038;8.372;2023-07-30T05:57:18;3.47;;;2.13;;
12433;SDS011;6281;49.038;8.372;2023-07-30T05:59:45;7.63;;;2.60;;
12433;SDS011;6281;49.038;8.372;2023-07-30T06:02:12;3.43;;;2.23;;
12433;SDS011;6281;49.038;8.372;2023-07-30T06:04:39;3.33;;;2.43;;
12433;SDS011;6281;49.038;8.372;2023-07-30T06:07:06;3.03;;;2.47;;
12433;SDS011;6281;49.038;8.372;2023-07-30T06:09:32;3.53;;;2.20;;
12433;SDS011;6281;49.038;8.372;2023-07-30T06:12:01;2.77;;;2.47;;
12433;SDS011;6281;49.038;8.372;2023-07-30T06:14:28;2.87;;;2.50;;
12433;SDS011;6281;49.038;8.372;2023-07-30T06:16:55;2.40;;;2.20;;
12433;SDS011;6281;49.038;8.372;2023-07-30T06:19:22;4.97;;;1.93;;
12433;SDS011;6281;49.038;8.372;2023-07-30T06:21:49;2.70;;;2.50;;
12433;SDS011;6281;49.038;8.372;2023-07-30T06:24:16;3.07;;;2.30;;
12433;SDS011;6281;49.038;8.372;2023-07-30T06:26:43;2.07;;;1.77;;
12433;SDS011;6281;49.038;8.372;2023-07-30T06:29:11;2.73;;;2.30;;
12433;SDS011;6281;49.038;8.372;2023-07-30T06:31:38;2.70;;;1.77;;
12433;SDS011;6281;49.038;8.372;2023-07-30T06:34:05;2.73;;;1.97;;
12433;SDS011;6281;49.038;8.372;2023-07-30T06:36:32;2.07;;;1.80;;
12433;SDS011;6281;49.038;8.372;2023-07-30T06:38:59;2.27;;;1.90;;
12433;SDS011;6281;49.038;8.372;2023-07-30T06:41:25;2.23;;;1.77;;
12433;SDS011;6281;49.038;8.372;2023-07-30T06:43:53;2.97;;;1.60;;
12433;SDS011;6281;49.038;8.372;2023-07-30T06:46:21;3.10;;;1.60;;
12433;SDS011;6281;49.038;8.372;2023-07-30T06:48:48;3.33;;;1.67;;
12433;SDS011;6281;49.038;8.372;2023-07-30T06:51:17;3.07;;;1.87;;
12433;SDS011;6281;49.038;8.372;2023-07-30T06:53:45;3.03;;;2.00;;
12433;SDS011;6281;49.038;8.372;2023-07-30T06:56:12;2.10;;;1.87;;
12433;SDS011;6281;49.038;8.372;2023-07-30T06:58:39;4.73;;;2.03;;
12433;SDS011;6281;49.038;8.372;2023-07-30T07:01:06;2.10;;;1.90;;
12433;SDS011;6281;49.038;8.372;2023-07-30T07:03:34;3.40;;;2.13;;
12433;SDS011;6281;49.038;8.372;2023-07-30T07:06:01;2.60;;;2.20;;
12433;SDS011;6281;49.038;8.372;2023-07-30T07:08:28;3.40;;;2.10;;
12433;SDS011;6281;49.038;8.372;2023-07-30T07:10:55;3.43;;;2.40;;
12433;SDS011;6281;49.038;8.372;2023-07-30T07:13:22;2.87;;;2.53;;
12433;SDS011;6281;49.038;8.372;2023-07-30T07:15:49;4.37;;;2.40;;
12433;SDS011;6281;49.038;8.372;2023-07-30T07:18:17;3.37;;;2.40;;
12433;SDS011;6281;49.038;8.372;2023-07-30T07:20:46;4.23;;;2.40;;
12433;SDS011;6281;49.038;8.372;2023-07-30T07:23:12;4.03;;;2.63;;
12433;SDS011;6281;49.038;8.372;2023-07-30T07:25:39;3.00;;;2.70;;
12433;SDS011;6281;49.038;8.372;2023-07-30T07:28:05;3.43;;;2.57;;
12433;SDS011;6281;49.038;8.372;2023-07-30T07:30:34;2.40;;;2.10;;
12433;SDS011;6281;49.038;8.372;2023-07-30T07:33:01;3.03;;;2.20;;
12433;SDS011;6281;49.038;8.372;2023-07-30T07:35:30;3.50;;;2.13;;
12433;SDS011;6281;49.038;8.372;2023-07-30T07:37:58;2.83;;;2.50;;
12433;SDS011;6281;49.038;8.372;2023-07-30T07:40:26;3.80;;;2.63;;
12433;SDS011;6281;49.038;8.372;2023-07-30T07:42:54;3.07;;;2.63;;
12433;SDS011;6281;49.038;8.372;2023-07-30T07:45:21;2.70;;;2.47;;
12433;SDS011;6281;49.038;8.372;2023-07-30T07:47:48;2.97;;;2.60;;
12433;SDS011;6281;49.038;8.372;2023-07-30T07:50:15;3.10;;;2.23;;
12433;SDS011;6281;49.038;8.372;2023-07-30T07:52:42;3.47;;;2.50;;
12433;SDS011;6281;49.038;8.372;2023-07-30T07:55:10;3.07;;;2.20;;
12433;SDS011;6281;49.038;8.372;2023-07-30T07:57:36;2.53;;;2.23;;
12433;SDS011;6281;49.038;8.372;2023-07-30T08:00:04;3.10;;;1.97;;
12433;SDS011;6281;49.038;8.372;2023-07-30T08:02:31;3.23;;;2.33;;
12433;SDS011;6281;49.038;8.372;2023-07-30T08:04:58;2.40;;;2.20;;
12433;SDS011;6281;49.038;8.372;2023-07-30T08:07:25;2.47;;;2.07;;
12433;SDS011;6281;49.038;8.372;2023-07-30T08:09:51;2.73;;;1.90;;
12433;SDS011;6281;49.038;8.372;2023-07-30T08:12:21;2.27;;;1.90;;
12433;SDS011;6281;49.038;8.372;2023-07-30T08:14:47;2.70;;;2.10;;
12433;SDS011;6281;49.038;8.372;2023-07-30T08:17:14;2.30;;;2.03;;
12433;SDS011;6281;49.038;8.372;2023-07-30T08:19:41;1.67;;;1.57;;
12433;SDS011;6281;49.038;8.372;2023-07-30T08:22:08;1.87;;;1.70;;
12433;SDS011;6281;49.038;8.372;2023-07-30T08:24:35;2.37;;;2.00;;
12433;SDS011;6281;49.038;8.372;2023-07-30T08:27:02;1.90;;;1.80;;
12433;SDS011;6281;49.038;8.372;2023-07-30T08:29:30;3.40;;;2.07;;
12433;SDS011;6281;49.038;8.372;2023-07-30T08:31:57;2.13;;;1.63;;
12433;SDS011;6281;49.038;8.372;2023-07-30T08:34:24;2.40;;;2.20;;
12433;SDS011;6281;49.038;8.372;2023-07-30T08:36:51;2.30;;;1.90;;
12433;SDS011;6281;49.038;8.372;2023-07-30T08:39:18;4.90;;;2.00;;
12433;SDS011;6281;49.038;8.372;2023-07-30T08:41:45;1.73;;;1.57;;
12433;SDS011;6281;49.038;8.372;2023-07-30T08:44:12;2.67;;;1.67;;
12433;SDS011;6281;49.038;8.372;2023-07-30T08:46:40;1.70;;;1.60;;
12433;SDS011;6281;49.038;8.372;2023-07-30T08:49:07;1.90;;;1.70;;
12433;SDS011;6281;49.038;8.372;2023-07-30T08:51:35;2.40;;;1.50;;
12433;SDS011;6281;49.038;8.372;2023-07-30T08:54:03;2.17;;;1.87;;
12433;SDS011;6281;49.038;8.372;2023-07-30T08:56:31;2.70;;;1.60;;
12433;SDS011;6281;49.038;8.372;2023-07-30T08:58:58;3.20;;;1.70;;
12433;SDS011;6281;49.038;8.372;2023-07-30T09:01:28;5.43;;;1.53;;
12433;SDS011;6281;49.038;8.372;2023-07-30T09:03:58;2.17;;;1.70;;
12433;SDS011;6281;49.038;8.372;2023-07-30T09:06:26;1.70;;;1.60;;
12433;SDS011;6281;49.038;8.372;2023-07-30T09:08:53;2.47;;;1.77;;
12433;SDS011;6281;49.038;8.372;2023-07-30T09:11:19;2.97;;;1.70;;
12433;SDS011;6281;49.038;8.372;2023-07-30T09:13:47;3.83;;;1.87;;
12433;SDS011;6281;49.038;8.372;2023-07-30T09:16:14;3.00;;;1.90;;
12433;SDS011;6281;49.038;8.372;2023-07-30T09:18:41;2.10;;;1.63;;
12433;SDS011;6281;49.038;8.372;2023-07-30T09:21:11;2.73;;;1.80;;
12433;SDS011;6281;49.038;8.372;2023-07-30T09:23:39;4.27;;;1.60;;
12433;SDS011;6281;49.038;8.372;2023-07-30T09:26:07;2.03;;;1.80;;
12433;SDS011;6281;49.038;8.372;2023-07-30T09:28:34;2.93;;;2.00;;
12433;SDS011;6281;49.038;8.372;2023-07-30T09:31:01;3.73;;;1.83;;
12433;SDS011;6281;49.038;8.372;2023-07-30T09:33:28;2.73;;;1.90;;
12433;SDS011;6281;49.038;8.372;2023-07-30T09:35:55;2.70;;;1.70;;
12433;SDS011;6281;49.038;8.372;2023-07-30T09:38:24;3.43;;;1.63;;
12433;SDS011;6281;49.038;8.372;2023-07-30T09:40:58;2.73;;;1.53;;
12433;SDS011;6281;49.038;8.372;2023-07-30T09:43:28;2.40;;;1.60;;
12433;SDS011;6281;49.038;8.372;2023-07-30T09:45:55;2.03;;;1.87;;
12433;SDS011;6281;49.038;8.372;2023-07-30T09:48:28;1.77;;;1.53;;
12433;SDS011;6281;49.038;8.372;2023-07-30T09:50:56;2.60;;;1.37;;
12433;SDS011;6281;49.038;8.372;2023-07-30T09:53:26;2.37;;;1.70;;
12433;SDS011;6281;49.038;8.372;2023-07-30T09:55:54;2.60;;;1.70;;
12433;SDS011;6281;49.038;8.372;2023-07-30T09:58:21;2.20;;;1.63;;
12433;SDS011;6281;49.038;8.372;2023-07-30T10:00:47;2.10;;;1.63;;
12433;SDS011;6281;49.038;8.372;2023-07-30T10:03:15;4.73;;;1.60;;
12433;SDS011;6281;49.038;8.372;2023-07-30T10:05:43;1.93;;;1.63;;
12433;SDS011;6281;49.038;8.372;2023-07-30T10:08:14;4.83;;;1.50;;
12433;SDS011;6281;49.038;8.372;2023-07-30T10:10:48;1.60;;;1.40;;
12433;SDS011;6281;49.038;8.372;2023-07-30T10:13:16;2.60;;;1.10;;
12433;SDS011;6281;49.038;8.372;2023-07-30T10:15:44;1.70;;;1.30;;
12433;SDS011;6281;49.038;8.372;2023-07-30T10:18:12;1.60;;;1.10;;
12433;SDS011;6281;49.038;8.372;2023-07-30T10:20:40;0.97;;;0.87;;
12433;SDS011;6281;49.038;8.372;2023-07-30T10:23:18;1.20;;;0.90;;
12433;SDS011;6281;49.038;8.372;2023-07-30T10:25:45;2.93;;;1.20;;
12433;SDS011;6281;49.038;8.372;2023-07-30T10:28:27;1.60;;;1.13;;
12433;SDS011;6281;49.038;8.372;2023-07-30T10:30:58;1.37;;;1.13;;
12433;SDS011;6281;49.038;8.372;2023-07-30T10:36:30;1.37;;;1.13;;
12433;SDS011;6281;49.038;8.372;2023-07-30T10:38:57;2.00;;;0.90;;
12433;SDS011;6281;49.038;8.372;2023-07-30T10:41:28;1.40;;;1.20;;
12433;SDS011;6281;49.038;8.372;2023-07-30T10:43:57;2.00;;;1.20;;
12433;SDS011;6281;49.038;8.372;2023-07-30T10:46:26;3.67;;;1.03;;
12433;SDS011;6281;49.038;8.372;2023-07-30T10:48:53;2.27;;;1.10;;
12433;SDS011;6281;49.038;8.372;2023-07-30T10:51:20;1.60;;;0.90;;
12433;SDS011;6281;49.038;8.372;2023-07-30T10:53:49;1.67;;;1.00;;
12433;SDS011;6281;49.038;8.372;2023-07-30T10:56:17;1.30;;;0.90;;
12433;SDS011;6281;49.038;8.372;2023-07-30T10:58:52;1.60;;;0.80;;
12433;SDS011;6281;49.038;8.372;2023-07-30T11:01:20;2.20;;;0.97;;
12433;SDS011;6281;49.038;8.372;2023-07-30T11:03:49;0.87;;;0.80;;
12433;SDS011;6281;49.038;8.372;2023-07-30T11:06:20;1.43;;;0.73;;
12433;SDS011;6281;49.038;8.372;2023-07-30T11:08:48;1.47;;;0.90;;
12433;SDS011;6281;49.038;8.372;2023-07-30T11:11:14;1.47;;;0.77;;
12433;SDS011;6281;49.038;8.372;2023-07-30T11:13:42;1.87;;;0.73;;
12433;SDS011;6281;49.038;8.372;2023-07-30T11:16:13;0.70;;;0.70;;
12433;SDS011;6281;49.038;8.372;2023-07-30T11:18:41;1.37;;;0.80;;
12433;SDS011;6281;49.038;8.372;2023-07-30T11:21:09;1.90;;;0.80;;
12433;SDS011;6281;49.038;8.372;2023-07-30T11:23:37;0.93;;;0.60;;
12433;SDS011;6281;49.038;8.372;2023-07-30T11:26:07;1.00;;;0.67;;
12433;SDS011;6281;49.038;8.372;2023-07-30T11:28:35;1.37;;;0.90;;
12433;SDS011;6281;49.038;8.372;2023-07-30T11:31:04;1.67;;;0.80;;
12433;SDS011;6281;49.038;8.372;2023-07-30T11:33:33;1.23;;;0.70;;
12433;SDS011;6281;49.038;8.372;2023-07-30T11:36:02;1.40;;;0.73;;
12433;SDS011;6281;49.038;8.372;2023-07-30T11:38:31;3.80;;;0.93;;
12433;SDS011;6281;49.038;8.372;2023-07-30T11:40:58;1.63;;;0.60;;
12433;SDS011;6281;49.038;8.372;2023-07-30T11:43:25;1.33;;;0.70;;
12433;SDS011;6281;49.038;8.372;2023-07-30T11:46:08;0.73;;;0.70;;
12433;SDS011;6281;49.038;8.372;2023-07-30T11:48:38;4.13;;;1.30;;
12433;SDS011;6281;49.038;8.372;2023-07-30T11:51:06;1.30;;;0.70;;
12433;SDS011;6281;49.038;8.372;2023-07-30T11:53:46;0.97;;;0.60;;
12433;SDS011;6281;49.038;8.372;2023-07-30T11:56:18;1.30;;;0.80;;
12433;SDS011;6281;49.038;8.372;2023-07-30T11:58:49;1.93;;;0.97;;
12433;SDS011;6281;49.038;8.372;2023-07-30T12:01:17;1.80;;;0.93;;
12433;SDS011;6281;49.038;8.372;2023-07-30T12:03:46;2.07;;;1.00;;
12433;SDS011;6281;49.038;8.372;2023-07-30T12:06:12;1.93;;;1.00;;
12433;SDS011;6281;49.038;8.372;2023-07-30T12:08:39;2.27;;;1.10;;
12433;SDS011;6281;49.038;8.372;2023-07-30T12:11:06;1.77;;;1.00;;
12433;SDS011;6281;49.038;8.372;2023-07-30T12:13:41;3.27;;;0.90;;
12433;SDS011;6281;49.038;8.372;2023-07-30T12:16:10;1.47;;;0.80;;
12433;SDS011;6281;49.038;8.372;2023-07-30T12:18:38;3.67;;;1.27;;
12433;SDS011;6281;49.038;8.372;2023-07-30T12:21:06;1.07;;;0.80;;
12433;SDS011;6281;49.038;8.372;2023-07-30T12:23:36;1.63;;;1.10;;
12433;SDS011;6281;49.038;8.372;2023-07-30T12:26:02;2.17;;;1.40;;
12433;SDS011;6281;49.038;8.372;2023-07-30T12:28:30;2.83;;;1.10;;
12433;SDS011;6281;49.038;8.372;2023-07-30T12:30:57;1.20;;;1.00;;
12433;SDS011;6281;49.038;8.372;2023-07-30T12:33:24;1.23;;;1.00;;
12433;SDS011;6281;49.038;8.372;2023-07-30T12:35:51;1.07;;;0.83;;
12433;SDS011;6281;49.038;8.372;2023-07-30T12:38:19;1.83;;;1.00;;
12433;SDS011;6281;49.038;8.372;2023-07-30T12:40:46;3.00;;;1.10;;
12433;SDS011;6281;49.038;8.372;2023-07-30T12:43:13;3.70;;;1.20;;
12433;SDS011;6281;49.038;8.372;2023-07-30T12:45:40;1.83;;;1.43;;
12433;SDS011;6281;49.038;8.372;2023-07-30T12:48:06;2.33;;;1.03;;
12433;SDS011;6281;49.038;8.372;2023-07-30T12:50:33;4.30;;;1.20;;
12433;SDS011;6281;49.038;8.372;2023-07-30T12:53:00;2.53;;;1.13;;
12433;SDS011;6281;49.038;8.372;2023-07-30T12:55:28;1.77;;;1.20;;
12433;SDS011;6281;49.038;8.372;2023-07-30T12:57:55;1.80;;;1.20;;
12433;SDS011;6281;49.038;8.372;2023-07-30T13:00:21;2.37;;;1.17;;
12433;SDS011;6281;49.038;8.372;2023-07-30T13:02:48;5.07;;;1.40;;
12433;SDS011;6281;49.038;8.372;2023-07-30T13:05:17;1.83;;;1.23;;
12433;SDS011;6281;49.038;8.372;2023-07-30T13:07:44;1.43;;;1.00;;
12433;SDS011;6281;49.038;8.372;2023-07-30T13:10:10;2.10;;;0.90;;
12433;SDS011;6281;49.038;8.372;2023-07-30T13:12:39;1.50;;;1.13;;
12433;SDS011;6281;49.038;8.372;2023-07-30T13:15:06;2.30;;;1.27;;
12433;SDS011;6281;49.038;8.372;2023-07-30T13:17:33;3.27;;;1.10;;
12433;SDS011;6281;49.038;8.372;2023-07-30T13:20:00;1.43;;;1.03;;
12433;SDS011;6281;49.038;8.372;2023-07-30T13:22:27;2.73;;;1.00;;
12433;SDS011;6281;49.038;8.372;2023-07-30T13:24:54;2.40;;;1.10;;
12433;SDS011;6281;49.038;8.372;2023-07-30T13:27:20;2.00;;;1.00;;
12433;SDS011;6281;49.038;8.372;2023-07-30T13:29:48;2.50;;;1.20;;
12433;SDS011;6281;49.038;8.372;2023-07-30T13:32:15;3.03;;;1.00;;
12433;SDS011;6281;49.038;8.372;2023-07-30T13:34:42;3.13;;;0.93;;
12433;SDS011;6281;49.038;8.372;2023-07-30T13:37:09;2.33;;;1.00;;
12433;SDS011;6281;49.038;8.372;2023-07-30T13:39:36;1.47;;;0.70;;
12433;SDS011;6281;49.038;8.372;2023-07-30T13:42:04;1.40;;;0.90;;
12433;SDS011;6281;49.038;8.372;2023-07-30T13:44:31;1.20;;;0.83;;
12433;SDS011;6281;49.038;8.372;2023-07-30T13:46:59;1.63;;;0.90;;
12433;SDS011;6281;49.038;8.372;2023-07-30T13:49:26;3.37;;;1.10;;
12433;SDS011;6281;49.038;8.372;2023-07-30T13:51:53;2.93;;;1.20;;
12433;SDS011;6281;49.038;8.372;2023-07-30T13:54:20;2.67;;;0.97;;
12433;SDS011;6281;49.038;8.372;2023-07-30T13:56:46;1.30;;;0.80;;
12433;SDS011;6281;49.038;8.372;2023-07-30T13:59:13;2.93;;;0.90;;
12433;SDS011;6281;49.038;8.372;2023-07-30T14:01:59;1.73;;;1.17;;
12433;SDS011;6281;49.038;8.372;2023-07-30T14:04:27;1.97;;;0.73;;
12433;SDS011;6281;49.038;8.372;2023-07-30T14:06:54;1.83;;;0.77;;
12433;SDS011;6281;49.038;8.372;2023-07-30T14:09:20;0.87;;;0.73;;
12433;SDS011;6281;49.038;8.372;2023-07-30T14:11:49;1.20;;;0.80;;
12433;SDS011;6281;49.038;8.372;2023-07-30T14:14:17;1.27;;;0.70;;
12433;SDS011;6281;49.038;8.372;2023-07-30T14:16:45;2.70;;;0.90;;
12433;SDS011;6281;49.038;8.372;2023-07-30T14:19:14;2.60;;;0.90;;
12433;SDS011;6281;49.038;8.372;2023-07-30T14:21:41;1.40;;;0.80;;
12433;SDS011;6281;49.038;8.372;2023-07-30T14:24:08;1.38;;;0.93;;
12433;SDS011;6281;49.038;8.372;2023-07-30T14:26:36;2.75;;;0.93;;
12433;SDS011;6281;49.038;8.372;2023-07-30T14:29:03;3.17;;;1.03;;
12433;SDS011;6281;49.038;8.372;2023-07-30T14:31:30;2.20;;;0.88;;
12433;SDS011;6281;49.038;8.372;2023-07-30T14:33:57;1.63;;;0.90;;
12433;SDS011;6281;49.038;8.372;2023-07-30T14:36:26;2.17;;;0.73;;
12433;SDS011;6281;49.038;8.372;2023-07-30T14:38:52;1.13;;;0.70;;
12433;SDS011;6281;49.038;8.372;2023-07-30T14:41:19;2.67;;;0.80;;
12433;SDS011;6281;49.038;8.372;2023-07-30T14:43:46;2.63;;;1.03;;
12433;SDS011;6281;49.038;8.372;2023-07-30T14:46:13;2.72;;;0.75;;
12433;SDS011;6281;49.038;8.372;2023-07-30T14:48:40;2.90;;;0.90;;
12433;SDS011;6281;49.038;8.372;2023-07-30T14:51:08;2.00;;;0.70;;
12433;SDS011;6281;49.038;8.372;2023-07-30T14:53:37;2.40;;;0.97;;
12433;SDS011;6281;49.038;8.372;2023-07-30T14:56:04;1.67;;;0.80;;
12433;SDS011;6281;49.038;8.372;2023-07-30T14:58:31;2.17;;;0.77;;
12433;SDS011;6281;49.038;8.372;2023-07-30T15:03:48;2.23;;;1.00;;
12433;SDS011;6281;49.038;8.372;2023-07-30T15:06:16;1.13;;;0.90;;
12433;SDS011;6281;49.038;8.372;2023-07-30T15:08:45;1.87;;;0.73;;